createdAt,value
2022-11-13T00:03:03.225Z,101723.97
2022-11-13T00:08:24.527Z,101716.00
2022-11-13T00:13:45.911Z,101707.00
2022-11-13T00:19:08.708Z,101693.75
2022-11-13T00:24:30.275Z,101706.31
2022-11-13T00:29:51.648Z,101693.84
2022-11-13T00:35:14.513Z,101686.75
2022-11-13T00:40:36.263Z,101684.81
2022-11-13T00:45:57.916Z,101677.88
2022-11-13T00:51:20.783Z,101675.69
2022-11-13T00:56:42.331Z,101672.13
2022-11-13T01:02:04.039Z,101687.22
2022-11-13T01:07:26.971Z,101673.78
2022-11-13T01:12:48.708Z,101670.69
2022-11-13T01:18:10.363Z,101662.44
2022-11-13T01:23:33.141Z,101672.34
2022-11-13T01:28:55.086Z,101680.00
2022-11-13T01:34:16.444Z,101683.25
2022-11-13T01:39:39.318Z,101670.31
2022-11-13T01:45:02.198Z,101661.38
2022-11-13T01:50:23.781Z,101656.09
2022-11-13T01:55:46.336Z,101655.25
2022-11-13T02:01:07.890Z,101650.63
2022-11-13T02:06:30.093Z,101634.78
2022-11-13T02:11:52.849Z,101627.78
2022-11-13T02:17:16.355Z,101630.84
2022-11-13T02:22:39.956Z,101635.38
2022-11-13T02:28:02.858Z,101631.88
2022-11-13T02:33:27.888Z,101639.47
2022-11-13T02:38:49.039Z,101635.03
2022-11-13T02:44:12.200Z,101630.00
2022-11-13T02:49:33.540Z,101634.78
2022-11-13T02:54:55.196Z,101640.22
2022-11-13T03:00:19.328Z,101625.00
2022-11-13T03:05:40.660Z,101617.47
2022-11-13T03:11:02.219Z,101611.13
2022-11-13T03:16:24.955Z,101606.91
2022-11-13T03:21:46.451Z,101612.72
2022-11-13T03:27:08.022Z,101613.34
2022-11-13T03:32:30.913Z,101610.31
2022-11-13T03:37:52.436Z,101606.16
2022-11-13T03:43:14.161Z,101612.88
2022-11-13T03:48:37.010Z,101599.66
2022-11-13T03:53:58.512Z,101594.72
2022-11-13T03:59:20.103Z,101590.63
2022-11-13T04:04:43.013Z,101591.88
2022-11-13T04:10:05.057Z,101595.91
2022-11-13T04:15:26.615Z,101589.78
2022-11-13T04:20:49.215Z,101584.16
2022-11-13T04:26:10.713Z,101586.88
2022-11-13T04:31:32.193Z,101570.19
2022-11-13T04:36:55.195Z,101572.16
2022-11-13T04:42:34.282Z,101572.53
2022-11-13T04:47:55.626Z,101566.53
2022-11-13T04:53:18.521Z,101555.97
2022-11-13T04:58:40.193Z,101551.66
2022-11-13T05:04:01.720Z,101558.13
2022-11-13T05:09:24.668Z,101556.41
2022-11-13T05:14:46.069Z,101560.09
2022-11-13T05:20:08.764Z,101558.44
2022-11-13T05:25:31.690Z,101553.94
2022-11-13T05:30:53.076Z,101548.72
2022-11-13T05:36:15.443Z,101547.09
2022-11-13T05:41:38.174Z,101551.75
2022-11-13T05:46:59.682Z,101557.13
2022-11-13T05:52:21.228Z,101559.00
2022-11-13T05:57:44.109Z,101556.47
2022-11-13T06:03:05.706Z,101551.13
2022-11-13T06:08:27.778Z,101547.75
2022-11-13T06:13:50.953Z,101538.84
2022-11-13T06:19:12.449Z,101544.31
2022-11-13T06:24:33.638Z,101550.66
2022-11-13T06:29:56.783Z,101544.53
2022-11-13T06:35:18.254Z,101546.34
2022-11-13T06:40:39.846Z,101541.16
2022-11-13T06:46:04.378Z,101537.66
2022-11-13T06:51:27.801Z,101534.22
2022-11-13T06:56:49.038Z,101527.91
2022-11-13T07:02:12.173Z,101526.19
2022-11-13T07:07:33.246Z,101524.44
2022-11-13T07:12:55.013Z,101517.38
2022-11-13T07:18:22.967Z,101526.34
2022-11-13T07:23:45.258Z,101529.91
2022-11-13T07:29:06.745Z,101540.59
2022-11-13T07:34:29.744Z,101540.69
2022-11-13T07:39:51.249Z,101525.50
2022-11-13T07:45:12.804Z,101519.34
2022-11-13T07:50:37.209Z,101519.44
2022-11-13T07:56:01.625Z,101515.81
2022-11-13T08:01:22.828Z,101513.03
2022-11-13T08:06:45.901Z,101506.38
2022-11-13T08:12:07.725Z,101500.22
2022-11-13T08:17:28.869Z,101508.31
2022-11-13T08:22:52.088Z,101511.72
2022-11-13T08:28:13.673Z,101514.94
2022-11-13T08:33:35.123Z,101518.50
2022-11-13T08:38:57.915Z,101520.91
2022-11-13T08:44:19.441Z,101524.50
2022-11-13T08:49:40.996Z,101519.69
2022-11-13T08:55:03.835Z,101510.50
2022-11-13T09:00:25.474Z,101508.19
2022-11-13T09:05:46.800Z,101505.59
2022-11-13T09:11:09.593Z,101500.44
2022-11-13T09:16:31.493Z,101495.50
2022-11-13T09:21:53.463Z,101494.31
2022-11-13T09:27:16.159Z,101496.69
2022-11-13T09:32:37.341Z,101486.69
2022-11-13T09:37:58.700Z,101485.59
2022-11-13T09:43:28.444Z,101496.91
2022-11-13T09:48:51.972Z,101498.66
2022-11-13T09:54:13.968Z,101497.69
2022-11-13T09:59:38.904Z,101495.75
2022-11-13T10:05:03.809Z,101490.31
2022-11-13T10:10:43.632Z,101485.66
2022-11-13T10:16:11.011Z,101466.00
2022-11-13T10:21:33.415Z,101457.97
2022-11-13T10:26:55.587Z,101457.00
2022-11-13T10:32:20.941Z,101450.72
2022-11-13T10:37:47.100Z,101457.69
2022-11-13T10:43:13.344Z,101439.81
2022-11-13T10:48:37.156Z,101435.97
2022-11-13T10:53:59.057Z,101428.81
2022-11-13T10:59:20.516Z,101418.22
2022-11-13T11:04:43.547Z,101409.22
2022-11-13T11:10:04.990Z,101397.41
2022-11-13T11:15:27.950Z,101381.34
2022-11-13T11:20:53.733Z,101390.41
2022-11-13T11:26:17.515Z,101377.03
2022-11-13T11:31:40.768Z,101366.41
2022-11-13T11:37:05.165Z,101360.97
2022-11-13T11:42:30.225Z,101351.88
2022-11-13T11:47:51.651Z,101346.22
2022-11-13T11:53:15.847Z,101340.03
2022-11-13T11:58:59.979Z,101343.81
2022-11-13T12:04:30.449Z,101329.81
2022-11-13T12:09:57.207Z,101330.75
2022-11-13T12:15:19.819Z,101329.00
2022-11-13T12:20:44.258Z,101318.34
2022-11-13T12:26:09.851Z,101306.47
2022-11-13T12:31:41.579Z,101303.72
2022-11-13T12:37:26.185Z,101298.13
2022-11-13T12:42:50.578Z,101289.59
2022-11-13T12:48:22.530Z,101289.59
2022-11-13T12:53:46.190Z,101293.63
2022-11-13T12:59:32.018Z,101284.63
2022-11-13T13:05:03.633Z,101266.22
2022-11-13T13:10:28.488Z,101256.16
2022-11-13T13:15:56.678Z,101245.38
2022-11-13T13:21:19.277Z,101222.78
2022-11-13T13:26:45.908Z,101219.25
2022-11-13T13:32:20.212Z,101219.13
2022-11-13T13:37:45.491Z,101208.00
2022-11-13T13:43:24.226Z,101207.25
2022-11-13T13:48:47.403Z,101201.31
2022-11-13T13:54:09.464Z,101187.13
2022-11-13T13:59:32.997Z,101176.50
2022-11-13T14:04:55.716Z,101173.81
2022-11-13T14:10:18.173Z,101165.78
2022-11-13T14:15:39.909Z,101164.41
2022-11-13T14:21:03.680Z,101153.03
2022-11-13T14:26:25.280Z,101157.72
2022-11-13T14:31:46.745Z,101139.34
2022-11-13T14:37:28.300Z,101136.72
2022-11-13T14:42:51.583Z,101136.91
2022-11-13T14:48:20.260Z,101127.41
2022-11-13T14:53:43.003Z,101122.31
2022-11-13T14:59:15.528Z,101113.34
2022-11-13T15:04:40.823Z,101105.38
2022-11-13T15:10:03.776Z,101102.13
2022-11-13T15:15:27.591Z,101095.63
2022-11-13T15:20:49.037Z,101102.31
2022-11-13T15:26:11.625Z,101097.44
2022-11-13T15:31:33.776Z,101091.38
2022-11-13T15:36:54.940Z,101096.47
2022-11-13T15:42:18.822Z,101104.41
2022-11-13T15:47:40.324Z,101101.72
2022-11-13T15:53:05.501Z,101106.13
2022-11-13T15:58:33.713Z,101105.38
2022-11-13T16:03:58.096Z,101098.97
2022-11-13T16:09:19.539Z,101101.72
2022-11-13T16:14:42.628Z,101085.38
2022-11-13T16:20:07.501Z,101081.16
2022-11-13T16:25:29.089Z,101082.13
2022-11-13T16:30:51.720Z,101076.03
2022-11-13T16:36:14.841Z,101072.50
2022-11-13T16:41:38.025Z,101067.47
2022-11-13T16:47:00.951Z,101059.91
2022-11-13T16:52:22.418Z,101070.16
2022-11-13T16:57:44.009Z,101070.91
2022-11-13T17:03:07.076Z,101056.66
2022-11-13T17:08:28.169Z,101062.56
2022-11-13T17:13:52.827Z,101058.75
2022-11-13T17:19:15.619Z,101051.19
2022-11-13T17:24:37.032Z,101055.59
2022-11-13T17:29:58.594Z,101045.31
2022-11-13T17:35:21.543Z,101047.44
2022-11-13T17:40:43.400Z,101043.31
2022-11-13T17:46:05.004Z,101031.41
2022-11-13T17:51:27.589Z,101046.53
2022-11-13T17:56:49.045Z,101041.84
2022-11-13T18:02:11.009Z,101033.88
2022-11-13T18:07:33.970Z,101032.84
2022-11-13T18:12:55.219Z,101031.56
2022-11-13T18:18:16.645Z,101028.81
2022-11-13T18:23:39.857Z,101016.25
2022-11-13T18:29:01.793Z,101018.72
2022-11-13T18:34:23.366Z,101017.75
2022-11-13T18:39:46.171Z,101024.47
2022-11-13T18:45:09.090Z,101027.34
2022-11-13T18:50:30.574Z,101033.19
2022-11-13T18:55:53.208Z,101038.44
2022-11-13T19:01:21.549Z,101029.75
2022-11-13T19:06:44.377Z,101028.47
2022-11-13T19:12:07.955Z,101021.19
2022-11-13T19:17:29.371Z,101026.75
2022-11-13T19:22:50.949Z,101027.72
2022-11-13T19:28:13.849Z,101022.22
2022-11-13T19:33:35.349Z,101017.66
2022-11-13T19:38:57.005Z,101016.38
2022-11-13T19:44:19.852Z,101014.66
2022-11-13T19:49:41.312Z,101016.56
2022-11-13T19:55:02.983Z,101019.78
2022-11-13T20:00:25.671Z,101012.72
2022-11-13T20:05:47.287Z,101003.69
2022-11-13T20:11:10.064Z,100996.53
2022-11-13T20:16:33.070Z,100994.50
2022-11-13T20:21:54.960Z,100990.28
2022-11-13T20:27:16.119Z,100979.47
2022-11-13T20:32:39.098Z,100978.59
2022-11-13T20:38:00.547Z,100976.78
2022-11-13T20:43:21.629Z,100983.97
2022-11-13T20:48:46.013Z,100984.72
2022-11-13T20:54:07.300Z,100972.06
2022-11-13T20:59:28.825Z,100971.19
2022-11-13T21:04:51.717Z,100969.16
2022-11-13T21:10:13.281Z,100969.25
2022-11-13T21:15:38.188Z,100963.78
2022-11-13T21:21:06.788Z,100967.31
2022-11-13T21:26:28.898Z,100963.88
2022-11-13T21:31:50.711Z,100966.56
2022-11-13T21:37:14.408Z,100960.56
2022-11-13T21:42:35.719Z,100957.25
2022-11-13T21:47:57.159Z,100960.56
2022-11-13T21:53:20.219Z,100949.72
2022-11-13T21:58:41.781Z,100948.03
2022-11-13T22:04:03.256Z,100937.16
2022-11-13T22:09:26.255Z,100934.06
2022-11-13T22:14:47.288Z,100926.66
2022-11-13T22:20:10.085Z,100928.88
2022-11-13T22:25:32.631Z,100923.06
2022-11-13T22:30:54.016Z,100920.81
2022-11-13T22:36:16.271Z,100919.84
2022-11-13T22:41:38.612Z,100913.63
2022-11-13T22:47:00.138Z,100919.34
2022-11-13T22:52:21.710Z,100910.16
2022-11-13T22:57:44.403Z,100906.06
2022-11-13T23:03:06.118Z,100890.72
2022-11-13T23:08:27.785Z,100886.97
2022-11-13T23:13:51.417Z,100880.13
2022-11-13T23:19:12.702Z,100873.91
2022-11-13T23:24:34.358Z,100867.22
2022-11-13T23:29:56.794Z,100865.97
2022-11-13T23:35:18.241Z,100863.72
2022-11-13T23:40:39.805Z,100859.75
2022-11-13T23:46:02.394Z,100848.47
2022-11-13T23:51:23.813Z,100843.31
2022-11-13T23:56:45.269Z,100845.56
